createdAt,value
2023-04-18T00:01:59.732Z,25.49
2023-04-18T00:04:05.260Z,25.5
2023-04-18T00:06:11.190Z,25.48
2023-04-18T00:08:16.298Z,25.48
2023-04-18T00:10:21.410Z,25.51
2023-04-18T00:12:26.458Z,25.5
2023-04-18T00:14:31.577Z,25.49
2023-04-18T00:16:36.631Z,25.48
2023-04-18T00:18:42.000Z,25.49
2023-04-18T00:20:47.061Z,25.46
2023-04-18T00:22:52.132Z,25.46
2023-04-18T00:24:57.162Z,25.45
2023-04-18T00:27:02.179Z,25.44
2023-04-18T00:29:07.332Z,25.41
2023-04-18T00:31:12.401Z,25.44
2023-04-18T00:33:17.670Z,25.43
2023-04-18T00:35:22.701Z,25.43
2023-04-18T00:37:27.726Z,25.4
2023-04-18T00:39:32.774Z,25.39
2023-04-18T00:41:37.787Z,25.39
2023-04-18T00:43:42.796Z,25.38
2023-04-18T00:45:47.893Z,25.36
2023-04-18T00:47:53.125Z,25.34
2023-04-18T00:49:58.340Z,25.35
2023-04-18T00:52:03.478Z,25.35
2023-04-18T00:54:08.594Z,25.34
2023-04-18T00:56:13.822Z,25.34
2023-04-18T00:58:18.930Z,25.33
2023-04-18T01:00:23.933Z,25.3
2023-04-18T01:02:29.015Z,25.28
2023-04-18T01:04:34.598Z,25.28
2023-04-18T01:06:40.142Z,25.29
2023-04-18T01:08:45.125Z,25.28
2023-04-18T01:10:50.180Z,25.28
2023-04-18T01:12:55.192Z,25.27
2023-04-18T01:15:00.232Z,25.25
2023-04-18T01:17:05.301Z,25.26
2023-04-18T01:19:10.388Z,25.26
2023-04-18T01:24:04.720Z,25.24
2023-04-18T01:26:09.793Z,25.22
2023-04-18T01:28:14.956Z,25.22
2023-04-18T01:30:19.997Z,25.2
2023-04-18T01:32:25.025Z,25.21
2023-04-18T01:34:30.246Z,25.21
2023-04-18T01:36:35.334Z,25.22
2023-04-18T01:38:40.444Z,25.23
2023-04-18T01:40:45.515Z,25.22
2023-04-18T01:42:50.549Z,25.22
2023-04-18T01:44:55.610Z,25.23
2023-04-18T01:47:00.693Z,25.22
2023-04-18T01:49:05.969Z,25.22
2023-04-18T01:51:10.996Z,25.21
2023-04-18T01:53:15.973Z,25.21
2023-04-18T01:55:21.007Z,25.21
2023-04-18T01:57:26.101Z,25.2
2023-04-18T01:59:31.141Z,25.19
2023-04-18T02:01:36.260Z,25.19
2023-04-18T02:03:41.439Z,25.18
2023-04-18T02:05:47.231Z,25.17
2023-04-18T02:07:52.260Z,25.16
2023-04-18T02:09:57.536Z,25.15
2023-04-18T02:12:02.885Z,25.14
2023-04-18T02:14:07.978Z,25.11
2023-04-18T02:16:13.051Z,25.09
2023-04-18T02:18:18.335Z,25.09
2023-04-18T02:20:23.376Z,25.07
2023-04-18T02:22:28.410Z,25.03
2023-04-18T02:24:33.465Z,25.04
2023-04-18T02:26:38.474Z,25.04
2023-04-18T02:28:43.498Z,25.03
2023-04-18T02:30:48.494Z,25.03
2023-04-18T02:32:53.591Z,25.03
2023-04-18T02:34:58.784Z,25.04
2023-04-18T02:37:04.348Z,25.04
2023-04-18T02:39:09.371Z,25.03
2023-04-18T02:41:14.451Z,25.02
2023-04-18T02:43:19.467Z,25
2023-04-18T02:45:24.554Z,24.99
2023-04-18T02:47:31.713Z,24.95
2023-04-18T02:49:59.295Z,24.94
2023-04-18T02:52:04.432Z,24.94
2023-04-18T02:54:09.533Z,24.93
2023-04-18T02:56:14.919Z,24.93
2023-04-18T02:58:19.925Z,24.93
2023-04-18T03:00:24.934Z,24.92
2023-04-18T03:02:30.034Z,24.91
2023-04-18T03:04:35.454Z,24.91
2023-04-18T03:06:40.650Z,24.89
2023-04-18T03:08:45.771Z,24.89
2023-04-18T03:10:50.828Z,24.91
2023-04-18T03:12:57.399Z,24.89
2023-04-18T03:15:02.404Z,24.89
2023-04-18T03:17:07.412Z,24.89
2023-04-18T03:19:12.403Z,24.87
2023-04-18T03:21:17.449Z,24.87
2023-04-18T03:23:22.508Z,24.86
2023-04-18T03:25:27.551Z,24.86
2023-04-18T03:27:36.882Z,24.84
2023-04-18T03:29:41.942Z,24.82
2023-04-18T03:31:46.993Z,24.84
2023-04-18T03:33:52.181Z,24.86
2023-04-18T03:35:57.210Z,24.86
2023-04-18T03:38:02.290Z,24.83
2023-04-18T03:40:07.467Z,24.84
2023-04-18T03:42:12.477Z,24.83
2023-04-18T03:44:17.556Z,24.84
2023-04-18T03:46:22.742Z,24.84
2023-04-18T03:48:27.991Z,24.83
2023-04-18T03:50:33.013Z,24.81
2023-04-18T03:52:38.060Z,24.78
2023-04-18T03:54:43.132Z,24.8
2023-04-18T03:56:48.160Z,24.81
2023-04-18T03:58:53.227Z,24.81
2023-04-18T04:00:58.298Z,24.81
2023-04-18T04:03:03.539Z,24.8
2023-04-18T04:05:09.335Z,24.82
2023-04-18T04:07:14.667Z,24.81
2023-04-18T04:09:19.711Z,24.8
2023-04-18T04:11:24.728Z,24.8
2023-04-18T04:13:29.903Z,24.8
2023-04-18T04:15:34.927Z,24.78
2023-04-18T04:17:40.006Z,24.77
2023-04-18T04:19:45.129Z,24.76
2023-04-18T04:21:50.154Z,24.78
2023-04-18T04:23:55.210Z,24.83
2023-04-18T04:26:00.258Z,24.91
2023-04-18T04:28:05.301Z,24.97
2023-04-18T04:30:11.954Z,25.03
2023-04-18T04:32:18.356Z,25.13
2023-04-18T04:34:23.504Z,25.19
2023-04-18T04:36:28.534Z,25.22
2023-04-18T04:38:33.574Z,25.28
2023-04-18T04:40:38.612Z,25.29
2023-04-18T04:42:43.671Z,25.32
2023-04-18T04:44:48.810Z,25.38
2023-04-18T04:46:54.003Z,25.41
2023-04-18T04:48:59.060Z,25.45
2023-04-18T04:51:04.180Z,25.49
2023-04-18T04:53:09.291Z,25.54
2023-04-18T04:55:14.426Z,25.58
2023-04-18T04:57:19.477Z,25.6
2023-04-18T04:59:24.532Z,25.63
2023-04-18T05:01:29.594Z,25.64
2023-04-18T05:03:34.929Z,25.65
2023-04-18T05:05:40.850Z,25.68
2023-04-18T05:07:45.932Z,25.65
2023-04-18T05:09:51.006Z,25.64
2023-04-18T05:11:56.062Z,25.63
2023-04-18T05:14:01.073Z,25.64
2023-04-18T05:16:06.137Z,25.63
2023-04-18T05:18:11.189Z,25.64
2023-04-18T05:20:16.270Z,25.67
2023-04-18T05:22:21.272Z,25.68
2023-04-18T05:24:26.573Z,25.68
2023-04-18T05:26:31.635Z,25.68
2023-04-18T05:28:36.661Z,25.68
2023-04-18T05:30:41.729Z,25.68
2023-04-18T05:32:46.926Z,25.68
2023-04-18T05:34:52.176Z,25.71
2023-04-18T05:36:57.239Z,25.72
2023-04-18T05:39:02.435Z,25.72
2023-04-18T05:41:07.531Z,25.72
2023-04-18T05:43:12.518Z,25.72
2023-04-18T05:45:17.611Z,25.71
2023-04-18T05:47:22.735Z,25.71
2023-04-18T05:49:27.910Z,25.74
2023-04-18T05:51:32.941Z,25.76
2023-04-18T05:53:37.946Z,25.73
2023-04-18T05:55:43.021Z,25.76
2023-04-18T05:57:48.014Z,25.77
2023-04-18T05:59:53.063Z,25.77
2023-04-18T06:01:58.263Z,25.77
2023-04-18T06:04:03.903Z,25.75
2023-04-18T06:06:09.598Z,25.76
2023-04-18T06:08:14.744Z,25.79
2023-04-18T06:10:19.853Z,25.79
2023-04-18T06:12:24.937Z,25.81
2023-04-18T06:14:30.260Z,25.77
2023-04-18T06:16:35.340Z,25.8
2023-04-18T06:18:40.920Z,25.82
2023-04-18T06:20:45.986Z,25.83
2023-04-18T06:22:51.083Z,25.82
2023-04-18T06:24:56.163Z,25.82
2023-04-18T06:27:01.286Z,25.84
2023-04-18T06:29:06.374Z,25.85
2023-04-18T06:31:11.427Z,25.86
2023-04-18T06:33:16.601Z,25.84
2023-04-18T06:35:21.654Z,25.83
2023-04-18T06:37:29.538Z,25.87
2023-04-18T06:39:34.561Z,25.91
2023-04-18T06:41:39.608Z,25.92
2023-04-18T06:43:59.539Z,25.92
2023-04-18T06:46:08.620Z,25.91
2023-04-18T06:48:13.901Z,25.91
2023-04-18T06:50:18.966Z,25.92
2023-04-18T06:52:23.931Z,25.89
2023-04-18T06:54:28.969Z,25.88
2023-04-18T06:56:36.328Z,25.91
2023-04-18T06:58:41.470Z,25.9
2023-04-18T07:00:46.607Z,25.92
2023-04-18T07:02:52.021Z,25.9
2023-04-18T07:04:57.699Z,25.9
2023-04-18T07:07:02.831Z,25.9
2023-04-18T07:09:07.982Z,25.89
2023-04-18T07:11:13.098Z,25.84
2023-04-18T07:13:18.147Z,25.85
2023-04-18T07:15:23.300Z,25.82
2023-04-18T07:17:28.389Z,25.83
2023-04-18T07:19:33.565Z,25.82
2023-04-18T07:21:38.580Z,25.82
2023-04-18T07:23:43.596Z,25.8
2023-04-18T07:25:48.642Z,25.79
2023-04-18T07:27:53.702Z,25.8
2023-04-18T07:29:58.782Z,25.78
2023-04-18T07:32:04.871Z,25.79
2023-04-18T07:34:12.763Z,25.79
2023-04-18T07:36:18.793Z,25.79
2023-04-18T07:38:23.835Z,25.8
2023-04-18T07:40:29.032Z,25.78
2023-04-18T07:42:34.116Z,25.78
2023-04-18T07:44:39.126Z,25.75
2023-04-18T07:46:44.312Z,25.75
2023-04-18T07:48:49.821Z,25.73
2023-04-18T07:50:54.873Z,25.73
2023-04-18T07:52:59.958Z,25.74
2023-04-18T07:55:04.975Z,25.76
2023-04-18T07:57:10.131Z,25.77
2023-04-18T07:59:15.417Z,25.76
2023-04-18T08:01:20.983Z,25.76
2023-04-18T08:03:26.246Z,25.76
2023-04-18T08:05:32.293Z,25.78
2023-04-18T08:07:37.724Z,25.76
2023-04-18T08:09:42.840Z,25.77
2023-04-18T08:11:48.056Z,25.78
2023-04-18T08:13:53.138Z,25.82
2023-04-18T08:15:58.247Z,25.81
2023-04-18T08:18:03.604Z,25.82
2023-04-18T08:20:08.916Z,25.8
2023-04-18T08:22:13.988Z,25.82
2023-04-18T08:24:19.068Z,25.82
2023-04-18T08:26:24.099Z,25.82
2023-04-18T08:28:29.267Z,25.81
2023-04-18T08:30:34.416Z,25.78
2023-04-18T08:32:39.814Z,25.79
2023-04-18T08:34:45.060Z,25.8
2023-04-18T08:36:50.051Z,25.79
2023-04-18T08:38:55.112Z,25.81
2023-04-18T08:41:00.152Z,25.8
2023-04-18T08:43:05.261Z,25.8
2023-04-18T08:45:10.325Z,25.79
2023-04-18T08:47:15.384Z,25.81
2023-04-18T08:49:20.514Z,25.81
2023-04-18T08:51:25.533Z,25.82
2023-04-18T08:53:30.671Z,25.81
2023-04-18T08:55:35.756Z,25.82
2023-04-18T08:57:40.905Z,25.81
2023-04-18T08:59:47.727Z,25.83
2023-04-18T09:01:55.083Z,25.81
2023-04-18T09:04:00.375Z,25.81
2023-04-18T09:06:05.717Z,25.8
2023-04-18T09:08:10.864Z,25.79
2023-04-18T09:10:15.958Z,25.82
2023-04-18T09:12:20.972Z,25.82
2023-04-18T09:14:26.012Z,25.79
2023-04-18T09:16:31.323Z,25.79
2023-04-18T09:18:36.518Z,25.81
2023-04-18T09:20:41.651Z,25.8
2023-04-18T09:22:46.822Z,25.83
2023-04-18T09:24:51.869Z,25.83
2023-04-18T09:26:57.060Z,25.83
2023-04-18T09:29:02.229Z,25.84
2023-04-18T09:31:07.339Z,25.82
2023-04-18T09:33:12.653Z,25.82
2023-04-18T09:35:17.877Z,25.82
2023-04-18T09:37:22.970Z,25.83
2023-04-18T09:39:27.995Z,25.87
2023-04-18T09:41:33.140Z,25.91
2023-04-18T09:43:38.204Z,25.92
2023-04-18T09:45:43.293Z,25.95
2023-04-18T09:47:48.506Z,25.98
2023-04-18T09:49:53.838Z,26
2023-04-18T09:51:58.934Z,26.02
2023-04-18T09:54:04.029Z,26.04
2023-04-18T09:56:09.224Z,26.04
2023-04-18T09:58:14.332Z,26.05
2023-04-18T10:00:19.468Z,26.06
2023-04-18T10:02:24.624Z,26.04
2023-04-18T10:04:30.221Z,26.04
2023-04-18T10:06:35.617Z,26.04
2023-04-18T10:08:40.764Z,26.01
2023-04-18T10:10:45.844Z,25.97
2023-04-18T10:12:50.983Z,25.93
2023-04-18T10:14:56.172Z,25.88
2023-04-18T10:17:01.234Z,25.84
2023-04-18T10:19:06.293Z,25.8
2023-04-18T10:21:11.382Z,25.78
2023-04-18T10:23:16.415Z,25.73
2023-04-18T10:25:21.490Z,25.69
2023-04-18T10:27:26.648Z,25.67
2023-04-18T10:29:31.859Z,25.62
2023-04-18T10:31:36.950Z,25.67
2023-04-18T10:33:42.742Z,25.7
2023-04-18T10:36:03.425Z,25.71
2023-04-18T10:38:08.451Z,25.73
2023-04-18T10:40:13.526Z,25.78
2023-04-18T10:42:18.565Z,25.81
2023-04-18T10:44:24.034Z,25.86
2023-04-18T10:46:32.163Z,25.85
2023-04-18T10:48:38.495Z,25.89
2023-04-18T10:50:43.820Z,25.9
2023-04-18T10:52:48.902Z,25.88
2023-04-18T10:54:53.981Z,25.87
2023-04-18T10:57:02.054Z,25.86
2023-04-18T10:59:07.151Z,25.8
2023-04-18T11:01:12.359Z,25.77
2023-04-18T11:03:17.678Z,25.7
2023-04-18T11:05:23.171Z,25.66
2023-04-18T11:07:29.909Z,25.65
2023-04-18T11:09:35.122Z,25.64
2023-04-18T11:11:40.380Z,25.68
2023-04-18T11:13:45.624Z,25.69
2023-04-18T11:15:51.162Z,25.68
2023-04-18T11:17:56.395Z,25.72
2023-04-18T11:20:01.719Z,25.71
2023-04-18T11:22:07.143Z,25.73
2023-04-18T11:24:12.455Z,25.7
2023-04-18T11:26:18.201Z,25.72
2023-04-18T11:28:23.277Z,25.67
2023-04-18T11:30:28.458Z,25.66
2023-04-18T11:32:33.632Z,25.68
2023-04-18T11:34:39.205Z,25.66
2023-04-18T11:36:44.329Z,25.68
2023-04-18T11:38:49.610Z,25.73
2023-04-18T11:40:54.663Z,25.77
2023-04-18T11:42:59.920Z,25.82
2023-04-18T11:45:05.108Z,25.84
2023-04-18T11:47:10.139Z,25.8
2023-04-18T11:49:15.308Z,25.84
2023-04-18T11:51:20.373Z,25.86
2023-04-18T11:53:25.588Z,25.87
2023-04-18T11:55:30.624Z,25.89
2023-04-18T11:57:35.691Z,25.91
2023-04-18T11:59:40.748Z,25.89
2023-04-18T12:01:45.786Z,25.89
2023-04-18T12:03:51.199Z,25.88
2023-04-18T12:05:57.129Z,25.9
2023-04-18T12:08:02.790Z,25.91
2023-04-18T12:10:07.868Z,25.9
2023-04-18T12:12:13.035Z,25.88
2023-04-18T12:14:18.101Z,25.9
2023-04-18T12:16:23.205Z,25.91
2023-04-18T12:18:28.392Z,25.93
2023-04-18T12:20:33.533Z,26
2023-04-18T12:22:38.637Z,26.06
2023-04-18T12:24:43.731Z,26.08
2023-04-18T12:26:48.802Z,26.13
2023-04-18T12:28:53.902Z,26.16
2023-04-18T12:30:59.067Z,26.18
2023-04-18T12:33:04.594Z,26.19
2023-04-18T12:35:09.836Z,26.19
2023-04-18T12:37:15.068Z,26.22
2023-04-18T12:39:20.136Z,26.21
2023-04-18T12:41:25.254Z,26.23
2023-04-18T12:43:30.395Z,26.22
2023-04-18T12:45:35.499Z,26.22
2023-04-18T12:47:40.614Z,26.24
2023-04-18T12:49:45.922Z,26.26
2023-04-18T12:51:50.971Z,26.27
2023-04-18T12:53:56.066Z,26.31
2023-04-18T12:56:01.135Z,26.36
2023-04-18T12:58:06.247Z,26.41
2023-04-18T13:00:11.445Z,26.42
2023-04-18T13:02:16.960Z,26.46
2023-04-18T13:04:22.408Z,26.49
2023-04-18T13:06:28.379Z,26.51
2023-04-18T13:08:33.474Z,26.55
2023-04-18T13:10:38.620Z,26.56
2023-04-18T13:12:43.763Z,26.57
2023-04-18T13:14:48.806Z,26.57
2023-04-18T13:16:53.911Z,26.55
2023-04-18T13:18:59.159Z,26.54
2023-04-18T13:21:04.256Z,26.57
2023-04-18T13:23:09.428Z,26.59
2023-04-18T13:25:14.543Z,26.55
2023-04-18T13:27:19.695Z,26.55
2023-04-18T13:29:24.861Z,26.53
2023-04-18T13:31:30.049Z,26.55
2023-04-18T13:33:35.617Z,26.56
2023-04-18T13:35:40.682Z,26.56
2023-04-18T13:37:45.752Z,26.57
2023-04-18T13:39:51.267Z,26.56
2023-04-18T13:41:56.405Z,26.55
2023-04-18T13:44:01.592Z,26.57
2023-04-18T13:46:06.769Z,26.56
2023-04-18T13:48:13.471Z,26.56
2023-04-18T13:50:20.459Z,26.56
2023-04-18T13:52:26.272Z,26.57
2023-04-18T13:54:31.515Z,26.57
2023-04-18T13:56:36.576Z,26.58
2023-04-18T13:58:41.693Z,26.6
2023-04-18T14:00:49.808Z,26.6
2023-04-18T14:02:54.920Z,26.61
2023-04-18T14:05:00.749Z,26.59
2023-04-18T14:07:06.506Z,26.6
2023-04-18T14:09:12.099Z,26.58
2023-04-18T14:11:17.811Z,26.61
2023-04-18T14:13:22.850Z,26.65
2023-04-18T14:15:28.081Z,26.68
2023-04-18T14:17:33.557Z,26.69
2023-04-18T14:19:39.000Z,26.72
2023-04-18T14:21:43.955Z,26.76
2023-04-18T14:23:48.936Z,26.78
2023-04-18T14:25:54.122Z,26.81
2023-04-18T14:27:59.202Z,26.84
2023-04-18T14:30:04.350Z,26.86
2023-04-18T14:32:09.432Z,26.88
2023-04-18T14:34:14.428Z,26.87
2023-04-18T14:36:19.475Z,26.9
2023-04-18T14:38:24.556Z,26.93
2023-04-18T14:40:31.477Z,26.96
2023-04-18T14:42:37.931Z,26.96
2023-04-18T14:44:43.080Z,26.97
2023-04-18T14:46:48.204Z,26.95
2023-04-18T14:48:53.419Z,26.96
2023-04-18T14:50:58.533Z,26.97
2023-04-18T14:53:03.614Z,26.96
2023-04-18T14:55:08.902Z,26.94
2023-04-18T14:57:13.949Z,26.96
2023-04-18T14:59:19.316Z,26.95
2023-04-18T15:01:25.213Z,26.93
2023-04-18T15:03:30.600Z,26.91
2023-04-18T15:05:36.558Z,26.92
2023-04-18T15:07:41.624Z,26.88
2023-04-18T15:09:46.753Z,26.87
2023-04-18T15:11:51.899Z,26.86
2023-04-18T15:13:57.063Z,26.89
2023-04-18T15:16:02.303Z,26.88
2023-04-18T15:18:07.486Z,26.9
2023-04-18T15:20:12.853Z,26.92
2023-04-18T15:22:17.916Z,26.9
2023-04-18T15:24:23.014Z,26.91
2023-04-18T15:26:28.135Z,26.92
2023-04-18T15:28:36.785Z,26.94
2023-04-18T15:30:41.949Z,26.95
2023-04-18T15:32:47.146Z,26.99
2023-04-18T15:34:52.446Z,26.98
2023-04-18T15:36:57.630Z,26.99
2023-04-18T15:39:02.681Z,27
2023-04-18T15:41:07.773Z,27
2023-04-18T15:43:12.839Z,27
2023-04-18T15:45:17.880Z,27.01
2023-04-18T15:47:23.115Z,27.02
2023-04-18T15:49:28.294Z,27.02
2023-04-18T15:51:33.340Z,27.03
2023-04-18T15:53:38.617Z,27.04
2023-04-18T15:55:43.726Z,27.04
2023-04-18T15:57:48.871Z,27.03
2023-04-18T15:59:53.970Z,27.03
2023-04-18T16:01:59.423Z,27.03
2023-04-18T16:04:04.956Z,27.04
2023-04-18T16:06:10.411Z,27.03
2023-04-18T16:08:15.481Z,27.06
2023-04-18T16:10:20.567Z,27.08
2023-04-18T16:12:25.648Z,27.09
2023-04-18T16:14:30.691Z,27.1
2023-04-18T16:16:35.726Z,27.12
2023-04-18T16:18:40.787Z,27.15
2023-04-18T16:20:45.854Z,27.15
2023-04-18T16:22:50.918Z,27.13
2023-04-18T16:24:55.982Z,27.18
2023-04-18T16:27:01.137Z,27.2
2023-04-18T16:29:06.246Z,27.23
2023-04-18T16:31:11.395Z,27.24
2023-04-18T16:33:16.795Z,27.25
2023-04-18T16:35:22.254Z,27.24
2023-04-18T16:37:27.348Z,27.21
2023-04-18T16:39:32.421Z,27.19
2023-04-18T16:41:37.632Z,27.17
2023-04-18T16:43:42.935Z,27.19
2023-04-18T16:45:47.970Z,27.17
2023-04-18T16:47:53.131Z,27.17
2023-04-18T16:49:58.422Z,27.18
2023-04-18T16:52:03.658Z,27.18
2023-04-18T16:54:08.770Z,27.18
2023-04-18T16:56:14.236Z,27.17
2023-04-18T16:58:19.331Z,27.15
2023-04-18T17:00:24.350Z,27.14
2023-04-18T17:02:29.649Z,27.14
2023-04-18T17:04:35.561Z,27.13
2023-04-18T17:06:40.893Z,27.11
2023-04-18T17:08:45.986Z,27.11
2023-04-18T17:10:51.051Z,27.16
2023-04-18T17:12:56.082Z,27.17
2023-04-18T17:15:01.153Z,27.19
2023-04-18T17:17:06.211Z,27.22
2023-04-18T17:19:11.290Z,27.21
2023-04-18T17:21:17.262Z,27.22
2023-04-18T17:23:22.430Z,27.21
2023-04-18T17:25:27.545Z,27.18
2023-04-18T17:27:32.614Z,26.98
2023-04-18T17:29:37.707Z,26.86
2023-04-18T17:31:42.799Z,26.73
2023-04-18T17:33:48.167Z,26.64
2023-04-18T17:35:53.259Z,26.57
2023-04-18T17:37:58.383Z,26.47
2023-04-18T17:40:03.572Z,26.42
2023-04-18T17:42:08.671Z,26.4
2023-04-18T17:44:13.826Z,26.35
2023-04-18T17:46:18.847Z,26.29
2023-04-18T17:48:24.198Z,26.29
2023-04-18T17:50:29.344Z,26.3
2023-04-18T17:52:34.448Z,26.28
2023-04-18T17:54:39.617Z,26.24
2023-04-18T17:56:44.704Z,26.16
2023-04-18T17:58:49.775Z,26.13
2023-04-18T18:00:57.373Z,26.05
2023-04-18T18:03:02.674Z,26.01
2023-04-18T18:05:08.532Z,25.94
2023-04-18T18:07:13.559Z,25.91
2023-04-18T18:09:18.602Z,25.84
2023-04-18T18:11:23.716Z,25.84
2023-04-18T18:13:28.747Z,25.79
2023-04-18T18:15:33.893Z,25.79
2023-04-18T18:17:38.991Z,25.77
2023-04-18T18:19:44.079Z,25.73
2023-04-18T18:21:49.068Z,25.73
2023-04-18T18:23:54.035Z,25.67
2023-04-18T18:25:59.069Z,25.69
2023-04-18T18:28:04.288Z,25.67
2023-04-18T18:30:09.681Z,25.63
2023-04-18T18:32:14.807Z,25.56
2023-04-18T18:34:20.054Z,25.43
2023-04-18T18:36:25.168Z,25.36
2023-04-18T18:38:30.366Z,25.41
2023-04-18T18:40:35.434Z,25.49
2023-04-18T18:42:40.531Z,25.56
2023-04-18T18:44:45.629Z,25.65
2023-04-18T18:46:50.788Z,25.67
2023-04-18T18:48:56.153Z,25.77
2023-04-18T18:51:01.236Z,25.87
2023-04-18T18:53:06.338Z,25.92
2023-04-18T18:55:11.494Z,25.97
2023-04-18T18:57:16.617Z,26.03
2023-04-18T18:59:21.683Z,26.08
2023-04-18T19:01:26.704Z,26.12
2023-04-18T19:03:32.126Z,26.16
2023-04-18T19:05:37.766Z,26.21
2023-04-18T19:07:42.775Z,26.24
2023-04-18T19:09:47.859Z,26.25
2023-04-18T19:11:52.914Z,26.27
2023-04-18T19:13:58.006Z,26.27
2023-04-18T19:16:03.106Z,26.27
2023-04-18T19:18:08.310Z,26.27
2023-04-18T19:20:13.511Z,26.29
2023-04-18T19:22:18.568Z,26.27
2023-04-18T19:24:23.662Z,26.26
2023-04-18T19:26:28.776Z,26.24
2023-04-18T19:28:33.991Z,26.26
2023-04-18T19:30:39.049Z,26.29
2023-04-18T19:32:44.139Z,26.28
2023-04-18T19:34:49.377Z,26.27
2023-04-18T19:36:54.410Z,26.24
2023-04-18T19:38:59.505Z,26.23
2023-04-18T19:41:04.720Z,26.23
2023-04-18T19:43:09.827Z,26.21
2023-04-18T19:45:14.967Z,26.21
2023-04-18T19:47:20.081Z,26.22
2023-04-18T19:49:25.396Z,26.22
2023-04-18T19:51:30.481Z,26.23
2023-04-18T19:53:35.566Z,26.21
2023-04-18T19:55:40.663Z,26.21
2023-04-18T19:57:45.797Z,26.21
2023-04-18T19:59:50.834Z,26.2
2023-04-18T20:01:57.258Z,26.18
2023-04-18T20:04:09.219Z,26.15
2023-04-18T20:06:14.967Z,26.14
2023-04-18T20:08:20.111Z,26.13
2023-04-18T20:10:25.177Z,26.13
2023-04-18T20:12:30.280Z,26.14
2023-04-18T20:14:35.388Z,26.14
2023-04-18T20:16:40.612Z,26.15
2023-04-18T20:18:45.867Z,26.13
2023-04-18T20:20:51.025Z,26.14
2023-04-18T20:22:56.180Z,26.11
2023-04-18T20:25:01.316Z,26.12
2023-04-18T20:27:06.369Z,26.16
2023-04-18T20:29:11.420Z,26.16
2023-04-18T20:31:17.231Z,26.12
2023-04-18T20:33:22.551Z,26.12
2023-04-18T20:35:27.627Z,26.11
2023-04-18T20:37:32.707Z,26.1
2023-04-18T20:39:37.739Z,26.1
2023-04-18T20:41:43.041Z,26.09
2023-04-18T20:43:48.092Z,26.06
2023-04-18T20:45:53.215Z,26.11
2023-04-18T20:47:58.681Z,26.14
2023-04-18T20:50:03.876Z,26.12
2023-04-18T20:52:09.084Z,26.08
2023-04-18T20:54:14.531Z,26.06
2023-04-18T20:56:20.374Z,26.01
2023-04-18T20:58:25.451Z,25.99
2023-04-18T21:00:30.481Z,25.94
2023-04-18T21:02:35.613Z,25.92
2023-04-18T21:04:41.093Z,25.89
2023-04-18T21:06:46.475Z,25.85
2023-04-18T21:08:51.500Z,25.84
2023-04-18T21:10:56.542Z,25.82
2023-04-18T21:13:01.765Z,25.81
2023-04-18T21:15:06.874Z,25.79
2023-04-18T21:17:11.947Z,25.76
2023-04-18T21:19:17.058Z,25.75
2023-04-18T21:21:22.132Z,25.73
2023-04-18T21:23:27.220Z,25.74
2023-04-18T21:25:32.263Z,25.7
2023-04-18T21:27:37.352Z,25.69
2023-04-18T21:29:42.481Z,25.69
2023-04-18T21:31:47.543Z,25.65
2023-04-18T21:33:52.860Z,25.67
2023-04-18T21:35:57.924Z,25.65
2023-04-18T21:38:02.973Z,25.65
2023-04-18T21:40:08.076Z,25.63
2023-04-18T21:42:13.233Z,25.61
2023-04-18T21:44:18.483Z,25.61
2023-04-18T21:46:23.743Z,25.62
2023-04-18T21:48:29.312Z,25.6
2023-04-18T21:50:34.358Z,25.59
2023-04-18T21:52:39.404Z,25.57
2023-04-18T21:54:44.420Z,25.55
2023-04-18T21:56:49.450Z,25.54
2023-04-18T21:58:54.550Z,25.53
2023-04-18T22:00:59.690Z,25.52
2023-04-18T22:03:05.071Z,25.52
2023-04-18T22:05:10.659Z,25.5
2023-04-18T22:07:15.904Z,25.5
2023-04-18T22:09:20.968Z,25.49
2023-04-18T22:11:26.023Z,25.47
2023-04-18T22:13:31.041Z,25.47
2023-04-18T22:15:36.072Z,25.48
2023-04-18T22:17:41.132Z,25.46
2023-04-18T22:19:46.349Z,25.45
2023-04-18T22:21:51.424Z,25.47
2023-04-18T22:23:56.510Z,25.46
2023-04-18T22:26:01.564Z,25.46
2023-04-18T22:28:06.616Z,25.45
2023-04-18T22:30:11.708Z,25.44
2023-04-18T22:32:16.788Z,25.43
2023-04-18T22:34:22.167Z,25.41
2023-04-18T22:36:27.201Z,25.41
2023-04-18T22:38:32.221Z,25.4
2023-04-18T22:40:37.271Z,25.39
2023-04-18T22:42:42.416Z,25.38
2023-04-18T22:44:47.459Z,25.38
2023-04-18T22:46:52.427Z,25.36
2023-04-18T22:48:57.529Z,25.35
2023-04-18T22:51:02.654Z,25.34
2023-04-18T22:53:07.836Z,25.35
2023-04-18T22:55:12.907Z,25.34
2023-04-18T22:57:17.955Z,25.34
2023-04-18T22:59:22.998Z,25.34
2023-04-18T23:01:28.072Z,25.34
2023-04-18T23:03:33.387Z,25.33
2023-04-18T23:05:39.049Z,25.34
2023-04-18T23:07:44.172Z,25.35
2023-04-18T23:09:49.266Z,25.34
2023-04-18T23:11:54.391Z,25.36
2023-04-18T23:13:59.457Z,25.34
2023-04-18T23:16:04.591Z,25.34
2023-04-18T23:18:09.867Z,25.32
2023-04-18T23:20:15.035Z,25.3
2023-04-18T23:22:20.051Z,25.3
2023-04-18T23:24:25.128Z,25.3
2023-04-18T23:26:30.203Z,25.27
2023-04-18T23:28:35.401Z,25.26
2023-04-18T23:30:40.670Z,25.27
2023-04-18T23:32:45.702Z,25.25
2023-04-18T23:34:50.941Z,25.23
2023-04-18T23:36:56.002Z,25.21
2023-04-18T23:39:01.029Z,25.22
2023-04-18T23:41:06.085Z,25.21
2023-04-18T23:43:11.117Z,25.21
2023-04-18T23:45:16.165Z,25.21
2023-04-18T23:47:21.308Z,25.2
2023-04-18T23:49:26.486Z,25.2
2023-04-18T23:51:31.940Z,25.19
2023-04-18T23:53:36.966Z,25.18
2023-04-18T23:55:42.039Z,25.18
2023-04-18T23:57:47.115Z,25.18
2023-04-18T23:59:52.167Z,25.17
